createdAt,value
2018-03-02T00:01:38.677Z,4.4
2018-03-02T00:11:37.898Z,4.5
2018-03-02T00:21:36.874Z,4.5
2018-03-02T00:31:36.294Z,4.4
2018-03-02T00:41:35.209Z,4.4
2018-03-02T00:51:34.482Z,4.3
2018-03-02T01:01:33.835Z,4.3
2018-03-02T01:11:32.581Z,4.3
2018-03-02T01:21:32.141Z,4.2
2018-03-02T01:31:31.291Z,4.2
2018-03-02T01:41:30.763Z,4.2
2018-03-02T01:51:29.902Z,4.2
2018-03-02T02:01:29.295Z,4.1
2018-03-02T02:11:27.910Z,4
2018-03-02T02:21:27.100Z,4
2018-03-02T02:31:26.508Z,4.1
2018-03-02T02:41:25.762Z,3.9
2018-03-02T02:51:24.872Z,3.9
2018-03-02T03:01:23.990Z,3.9
2018-03-02T03:11:23.524Z,3.8
2018-03-02T03:21:22.329Z,3.8
2018-03-02T03:31:21.418Z,3.8
2018-03-02T03:41:20.791Z,3.8
2018-03-02T03:51:20.450Z,3.8
2018-03-02T04:01:19.269Z,3.8
2018-03-02T04:11:18.415Z,3.8
2018-03-02T04:21:17.496Z,3.6
2018-03-02T04:31:16.616Z,3.6
2018-03-02T04:41:16.426Z,3.6
2018-03-02T04:51:15.130Z,3.7
2018-03-02T05:01:14.247Z,2.6
2018-03-02T05:11:13.627Z,-0.8
2018-03-02T05:21:12.995Z,-1.5
2018-03-02T05:31:11.953Z,-1.8
2018-03-02T05:41:11.381Z,-1.8
2018-03-02T05:51:10.478Z,-1.9
2018-03-02T06:01:09.703Z,-1.6
2018-03-02T06:11:08.564Z,-1.6
2018-03-02T06:21:08.176Z,-1.4
2018-03-02T06:31:07.479Z,-1.1
2018-03-02T06:41:06.346Z,-0.8
2018-03-02T06:51:05.412Z,-0.3
2018-03-02T07:01:05.052Z,0.3
2018-03-02T07:11:03.792Z,0.5
2018-03-02T07:21:03.346Z,0.5
2018-03-02T07:31:02.536Z,0.8
2018-03-02T07:41:02.182Z,0.9
2018-03-02T07:51:00.849Z,1.2
2018-03-02T08:01:00.177Z,1.1
2018-03-02T08:10:59.475Z,1.6
2018-03-02T08:20:58.321Z,1.7
2018-03-02T08:30:57.510Z,2.1
2018-03-02T08:40:57.201Z,3
2018-03-02T08:50:56.176Z,3.4
2018-03-02T09:00:55.322Z,3.9
2018-03-02T09:10:54.848Z,4.4
2018-03-02T09:20:53.543Z,4.6
2018-03-02T09:30:52.759Z,4.6
2018-03-02T09:40:52.324Z,5.3
2018-03-02T09:50:51.246Z,6.6
2018-03-02T10:00:50.150Z,7.2
2018-03-02T10:10:49.587Z,7.4
2018-03-02T10:20:48.950Z,6.8
2018-03-02T10:30:47.992Z,7.3
2018-03-02T10:40:47.439Z,7.5
2018-03-02T10:50:46.607Z,8.1
2018-03-02T11:00:45.758Z,7.7
2018-03-02T11:10:44.683Z,7.8
2018-03-02T11:20:43.919Z,8.1
2018-03-02T11:30:43.782Z,8.2
2018-03-02T11:40:42.614Z,8.6
2018-03-02T11:50:41.708Z,8.6
2018-03-02T12:00:40.896Z,8.5
2018-03-02T12:10:40.162Z,8.7
2018-03-02T12:20:39.173Z,8.6
2018-03-02T12:30:38.529Z,8.5
2018-03-02T12:40:38.033Z,8.6
2018-03-02T12:50:36.977Z,8.4
2018-03-02T13:00:36.731Z,8.4
2018-03-02T13:10:35.238Z,8.7
2018-03-02T13:20:34.569Z,8.8
2018-03-02T13:30:33.706Z,8.6
2018-03-02T13:40:32.899Z,8.4
2018-03-02T13:50:32.053Z,8.1
2018-03-02T14:00:31.282Z,7.7
2018-03-02T14:10:30.252Z,7.3
2018-03-02T14:20:29.454Z,6.9
2018-03-02T14:30:29.269Z,6.7
2018-03-02T14:40:28.274Z,6.7
2018-03-02T14:50:27.339Z,6.2
2018-03-02T15:00:26.502Z,6.1
2018-03-02T15:10:25.992Z,6.1
2018-03-02T15:20:24.663Z,6
2018-03-02T15:30:24.427Z,6.1
2018-03-02T15:40:23.719Z,6
2018-03-02T15:50:22.473Z,5.9
2018-03-02T16:00:21.893Z,5.9
2018-03-02T16:10:20.972Z,5.9
2018-03-02T16:20:19.922Z,5.6
2018-03-02T16:30:19.472Z,5.7
2018-03-02T16:40:18.876Z,5.4
2018-03-02T16:50:17.740Z,6.1
2018-03-02T17:00:17.289Z,6.8
2018-03-02T17:10:15.847Z,7.1
2018-03-02T17:20:15.127Z,7.2
2018-03-02T17:30:15.130Z,7.4
2018-03-02T17:40:13.750Z,7.4
2018-03-02T17:50:13.031Z,7.5
2018-03-02T18:00:12.453Z,7.5
2018-03-02T18:10:11.813Z,7.5
2018-03-02T18:20:10.595Z,7.6
2018-03-02T18:30:09.861Z,7.8
2018-03-02T18:40:09.044Z,7.9
2018-03-02T18:50:08.265Z,7.9
2018-03-02T19:00:07.828Z,8.1
2018-03-02T19:10:06.928Z,8.1
2018-03-02T19:20:06.075Z,8.1
2018-03-02T19:30:05.222Z,8.1
2018-03-02T19:40:04.330Z,8.1
2018-03-02T19:50:03.441Z,7.9
2018-03-02T20:00:03.172Z,7.9
2018-03-02T20:10:01.666Z,7.8
2018-03-02T20:20:01.150Z,7.8
2018-03-02T20:30:00.245Z,7.8
2018-03-02T20:39:59.404Z,7.8
2018-03-02T20:49:58.630Z,7.6
2018-03-02T20:59:57.915Z,7.6
2018-03-02T21:09:57.050Z,7.5
2018-03-02T21:19:56.468Z,7.4
2018-03-02T21:29:55.430Z,7.4
2018-03-02T21:39:55.341Z,7.5
2018-03-02T21:49:53.963Z,7.4
2018-03-02T21:59:52.869Z,7.3
